sensor_id;sensor_type;location;lat;lon;timestamp;temperature;humidity
53314;DHT22;39202;51.468;7.146;2023-03-01T00:02:00;22.10;40.60
53314;DHT22;39202;51.468;7.146;2023-03-01T00:07:02;22.10;40.70
53314;DHT22;39202;51.468;7.146;2023-03-01T00:12:04;22.00;40.60
53314;DHT22;39202;51.468;7.146;2023-03-01T00:17:08;22.00;40.60
53314;DHT22;39202;51.468;7.146;2023-03-01T00:22:09;22.00;40.70
53314;DHT22;39202;51.468;7.146;2023-03-01T00:27:11;22.00;40.60
53314;DHT22;39202;51.468;7.146;2023-03-01T00:32:14;22.00;40.60
53314;DHT22;39202;51.468;7.146;2023-03-01T00:37:16;22.00;40.70
53314;DHT22;39202;51.468;7.146;2023-03-01T00:42:17;21.90;40.60
53314;DHT22;39202;51.468;7.146;2023-03-01T00:47:20;21.90;40.60
53314;DHT22;39202;51.468;7.146;2023-03-01T00:52:22;21.90;40.70
53314;DHT22;39202;51.468;7.146;2023-03-01T00:57:24;21.90;40.60
53314;DHT22;39202;51.468;7.146;2023-03-01T01:02:27;21.90;40.70
53314;DHT22;39202;51.468;7.146;2023-03-01T01:12:31;21.80;41.20
53314;DHT22;39202;51.468;7.146;2023-03-01T01:17:34;21.80;40.70
53314;DHT22;39202;51.468;7.146;2023-03-01T01:22:36;21.80;40.70
53314;DHT22;39202;51.468;7.146;2023-03-01T01:27:38;21.80;40.70
53314;DHT22;39202;51.468;7.146;2023-03-01T01:32:41;21.80;40.70
53314;DHT22;39202;51.468;7.146;2023-03-01T01:37:43;21.80;40.70
53314;DHT22;39202;51.468;7.146;2023-03-01T01:42:44;21.80;40.70
53314;DHT22;39202;51.468;7.146;2023-03-01T01:47:47;21.70;40.60
53314;DHT22;39202;51.468;7.146;2023-03-01T01:52:50;21.70;40.70
53314;DHT22;39202;51.468;7.146;2023-03-01T01:57:55;21.70;40.70
53314;DHT22;39202;51.468;7.146;2023-03-01T02:03:01;21.70;40.70
53314;DHT22;39202;51.468;7.146;2023-03-01T02:08:03;21.70;40.70
53314;DHT22;39202;51.468;7.146;2023-03-01T02:13:05;21.70;40.70
53314;DHT22;39202;51.468;7.146;2023-03-01T02:18:11;21.60;40.70
53314;DHT22;39202;51.468;7.146;2023-03-01T02:23:13;21.60;40.70
53314;DHT22;39202;51.468;7.146;2023-03-01T02:28:33;21.60;40.70
53314;DHT22;39202;51.468;7.146;2023-03-01T02:33:38;21.60;40.70
53314;DHT22;39202;51.468;7.146;2023-03-01T02:38:40;21.60;40.70
53314;DHT22;39202;51.468;7.146;2023-03-01T02:43:44;21.60;40.70
53314;DHT22;39202;51.468;7.146;2023-03-01T02:48:48;21.60;40.70
53314;DHT22;39202;51.468;7.146;2023-03-01T02:53:58;21.60;40.70
53314;DHT22;39202;51.468;7.146;2023-03-01T02:59:04;21.60;40.70
53314;DHT22;39202;51.468;7.146;2023-03-01T03:04:07;21.50;40.70
53314;DHT22;39202;51.468;7.146;2023-03-01T03:09:10;21.50;40.70
53314;DHT22;39202;51.468;7.146;2023-03-01T03:14:15;21.50;40.70
53314;DHT22;39202;51.468;7.146;2023-03-01T03:19:19;21.50;40.70
53314;DHT22;39202;51.468;7.146;2023-03-01T03:24:20;21.50;40.70
53314;DHT22;39202;51.468;7.146;2023-03-01T03:29:23;21.50;40.70
53314;DHT22;39202;51.468;7.146;2023-03-01T03:34:25;21.50;40.70
53314;DHT22;39202;51.468;7.146;2023-03-01T03:39:27;21.50;40.80
53314;DHT22;39202;51.468;7.146;2023-03-01T03:44:30;21.50;40.80
53314;DHT22;39202;51.468;7.146;2023-03-01T03:49:33;21.50;40.80
53314;DHT22;39202;51.468;7.146;2023-03-01T03:54:35;21.50;40.80
53314;DHT22;39202;51.468;7.146;2023-03-01T03:59:38;21.50;40.70
53314;DHT22;39202;51.468;7.146;2023-03-01T04:04:40;21.50;40.80
53314;DHT22;39202;51.468;7.146;2023-03-01T04:09:42;21.50;40.80
53314;DHT22;39202;51.468;7.146;2023-03-01T04:14:45;21.60;40.80
53314;DHT22;39202;51.468;7.146;2023-03-01T04:19:47;21.60;40.80
53314;DHT22;39202;51.468;7.146;2023-03-01T04:24:49;21.50;40.70
53314;DHT22;39202;51.468;7.146;2023-03-01T04:29:52;21.50;40.70
53314;DHT22;39202;51.468;7.146;2023-03-01T04:34:53;21.50;40.70
53314;DHT22;39202;51.468;7.146;2023-03-01T04:39:55;21.50;40.70
53314;DHT22;39202;51.468;7.146;2023-03-01T04:44:59;21.50;40.70
53314;DHT22;39202;51.468;7.146;2023-03-01T04:50:00;21.50;40.70
53314;DHT22;39202;51.468;7.146;2023-03-01T04:55:02;21.50;41.40
53314;DHT22;39202;51.468;7.146;2023-03-01T05:00:09;21.50;40.70
53314;DHT22;39202;51.468;7.146;2023-03-01T05:05:24;21.50;40.80
53314;DHT22;39202;51.468;7.146;2023-03-01T05:10:28;21.50;40.70
53314;DHT22;39202;51.468;7.146;2023-03-01T05:15:31;21.50;40.70
53314;DHT22;39202;51.468;7.146;2023-03-01T05:20:33;21.50;40.70
53314;DHT22;39202;51.468;7.146;2023-03-01T05:25:36;21.50;40.80
53314;DHT22;39202;51.468;7.146;2023-03-01T05:30:41;21.50;40.70
53314;DHT22;39202;51.468;7.146;2023-03-01T05:35:44;21.50;40.70
53314;DHT22;39202;51.468;7.146;2023-03-01T05:40:48;21.50;40.80
53314;DHT22;39202;51.468;7.146;2023-03-01T05:45:51;21.50;40.80
53314;DHT22;39202;51.468;7.146;2023-03-01T05:50:53;21.50;40.80
53314;DHT22;39202;51.468;7.146;2023-03-01T05:55:54;21.50;40.80
53314;DHT22;39202;51.468;7.146;2023-03-01T06:00:57;21.50;40.80
53314;DHT22;39202;51.468;7.146;2023-03-01T06:05:59;21.50;40.80
53314;DHT22;39202;51.468;7.146;2023-03-01T06:11:01;21.60;40.90
53314;DHT22;39202;51.468;7.146;2023-03-01T06:16:06;21.60;40.80
53314;DHT22;39202;51.468;7.146;2023-03-01T06:21:08;21.60;40.80
53314;DHT22;39202;51.468;7.146;2023-03-01T06:26:10;21.60;40.80
53314;DHT22;39202;51.468;7.146;2023-03-01T06:31:13;21.60;40.70
53314;DHT22;39202;51.468;7.146;2023-03-01T06:36:15;21.60;40.70
53314;DHT22;39202;51.468;7.146;2023-03-01T06:41:19;21.60;40.70
53314;DHT22;39202;51.468;7.146;2023-03-01T06:46:22;21.60;40.70
53314;DHT22;39202;51.468;7.146;2023-03-01T06:51:24;21.60;40.60
53314;DHT22;39202;51.468;7.146;2023-03-01T06:56:25;21.60;40.60
53314;DHT22;39202;51.468;7.146;2023-03-01T07:01:29;21.60;40.60
53314;DHT22;39202;51.468;7.146;2023-03-01T07:06:30;21.60;40.60
53314;DHT22;39202;51.468;7.146;2023-03-01T07:11:32;21.60;40.70
53314;DHT22;39202;51.468;7.146;2023-03-01T07:16:35;21.60;40.80
53314;DHT22;39202;51.468;7.146;2023-03-01T07:21:37;21.60;40.90
53314;DHT22;39202;51.468;7.146;2023-03-01T07:26:39;21.60;40.90
53314;DHT22;39202;51.468;7.146;2023-03-01T07:31:42;21.70;41.00
53314;DHT22;39202;51.468;7.146;2023-03-01T07:36:44;21.80;41.10
53314;DHT22;39202;51.468;7.146;2023-03-01T07:41:45;21.90;41.10
53314;DHT22;39202;51.468;7.146;2023-03-01T07:46:48;22.00;41.20
53314;DHT22;39202;51.468;7.146;2023-03-01T07:51:52;22.10;41.30
53314;DHT22;39202;51.468;7.146;2023-03-01T07:56:54;22.20;41.40
53314;DHT22;39202;51.468;7.146;2023-03-01T08:01:57;22.40;41.50
53314;DHT22;39202;51.468;7.146;2023-03-01T08:06:59;22.50;41.60
53314;DHT22;39202;51.468;7.146;2023-03-01T08:12:00;22.60;41.60
53314;DHT22;39202;51.468;7.146;2023-03-01T08:17:03;22.80;41.70
53314;DHT22;39202;51.468;7.146;2023-03-01T08:22:05;23.00;41.70
53314;DHT22;39202;51.468;7.146;2023-03-01T08:27:07;23.20;41.70
53314;DHT22;39202;51.468;7.146;2023-03-01T08:32:10;23.40;41.70
53314;DHT22;39202;51.468;7.146;2023-03-01T08:37:12;23.50;41.70
53314;DHT22;39202;51.468;7.146;2023-03-01T08:42:14;23.70;41.60
53314;DHT22;39202;51.468;7.146;2023-03-01T08:47:17;23.80;41.50
53314;DHT22;39202;51.468;7.146;2023-03-01T08:52:19;24.00;41.50
53314;DHT22;39202;51.468;7.146;2023-03-01T08:57:20;24.10;41.40
53314;DHT22;39202;51.468;7.146;2023-03-01T09:02:23;24.20;41.30
53314;DHT22;39202;51.468;7.146;2023-03-01T09:07:26;24.30;41.10
53314;DHT22;39202;51.468;7.146;2023-03-01T09:12:29;24.50;41.10
53314;DHT22;39202;51.468;7.146;2023-03-01T09:17:32;24.50;41.00
53314;DHT22;39202;51.468;7.146;2023-03-01T09:22:34;24.60;41.00
53314;DHT22;39202;51.468;7.146;2023-03-01T09:27:35;24.70;41.00
53314;DHT22;39202;51.468;7.146;2023-03-01T09:32:38;24.80;40.90
53314;DHT22;39202;51.468;7.146;2023-03-01T09:37:43;24.80;40.80
53314;DHT22;39202;51.468;7.146;2023-03-01T09:42:53;24.90;40.40
53314;DHT22;39202;51.468;7.146;2023-03-01T09:47:58;25.00;40.10
53314;DHT22;39202;51.468;7.146;2023-03-01T09:53:02;24.90;40.10
53314;DHT22;39202;51.468;7.146;2023-03-01T09:58:27;25.00;40.20
53314;DHT22;39202;51.468;7.146;2023-03-01T10:03:36;25.10;40.20
53314;DHT22;39202;51.468;7.146;2023-03-01T10:08:42;25.10;40.20
53314;DHT22;39202;51.468;7.146;2023-03-01T10:13:53;25.10;40.30
53314;DHT22;39202;51.468;7.146;2023-03-01T10:19:00;25.20;40.30
53314;DHT22;39202;51.468;7.146;2023-03-01T10:24:10;25.20;40.30
53314;DHT22;39202;51.468;7.146;2023-03-01T10:29:14;25.30;40.30
53314;DHT22;39202;51.468;7.146;2023-03-01T10:34:19;25.30;40.20
53314;DHT22;39202;51.468;7.146;2023-03-01T10:39:22;25.40;40.30
53314;DHT22;39202;51.468;7.146;2023-03-01T10:44:39;25.40;40.30
53314;DHT22;39202;51.468;7.146;2023-03-01T10:49:53;25.40;40.20
53314;DHT22;39202;51.468;7.146;2023-03-01T10:54:57;25.50;40.20
53314;DHT22;39202;51.468;7.146;2023-03-01T11:00:22;25.50;40.10
53314;DHT22;39202;51.468;7.146;2023-03-01T11:05:26;25.50;39.90
53314;DHT22;39202;51.468;7.146;2023-03-01T11:10:32;25.60;40.00
53314;DHT22;39202;51.468;7.146;2023-03-01T11:15:35;25.60;40.00
53314;DHT22;39202;51.468;7.146;2023-03-01T11:20:38;25.60;40.00
53314;DHT22;39202;51.468;7.146;2023-03-01T11:25:42;25.70;39.40
53314;DHT22;39202;51.468;7.146;2023-03-01T11:30:49;25.70;39.00
53314;DHT22;39202;51.468;7.146;2023-03-01T11:36:00;25.70;38.80
53314;DHT22;39202;51.468;7.146;2023-03-01T11:41:06;25.60;38.50
53314;DHT22;39202;51.468;7.146;2023-03-01T11:52:06;25.50;38.30
53314;DHT22;39202;51.468;7.146;2023-03-01T11:57:19;25.40;38.30
53314;DHT22;39202;51.468;7.146;2023-03-01T12:02:56;25.30;38.20
53314;DHT22;39202;51.468;7.146;2023-03-01T12:08:07;25.20;38.10
53314;DHT22;39202;51.468;7.146;2023-03-01T12:13:43;25.20;38.20
53314;DHT22;39202;51.468;7.146;2023-03-01T12:19:10;25.10;38.00
53314;DHT22;39202;51.468;7.146;2023-03-01T12:24:35;25.10;38.10
53314;DHT22;39202;51.468;7.146;2023-03-01T12:29:46;25.00;38.10
53314;DHT22;39202;51.468;7.146;2023-03-01T12:46:14;24.90;38.00
53314;DHT22;39202;51.468;7.146;2023-03-01T12:51:20;24.90;38.10
53314;DHT22;39202;51.468;7.146;2023-03-01T12:56:28;24.80;38.20
53314;DHT22;39202;51.468;7.146;2023-03-01T13:01:36;24.80;38.10
53314;DHT22;39202;51.468;7.146;2023-03-01T13:06:47;24.80;38.10
53314;DHT22;39202;51.468;7.146;2023-03-01T13:11:51;24.70;38.20
53314;DHT22;39202;51.468;7.146;2023-03-01T13:16:54;24.70;38.40
53314;DHT22;39202;51.468;7.146;2023-03-01T13:21:56;24.70;38.60
53314;DHT22;39202;51.468;7.146;2023-03-01T13:27:23;24.80;38.90
53314;DHT22;39202;51.468;7.146;2023-03-01T13:32:30;24.80;38.90
53314;DHT22;39202;51.468;7.146;2023-03-01T13:37:35;24.90;38.90
53314;DHT22;39202;51.468;7.146;2023-03-01T13:42:41;25.00;38.90
53314;DHT22;39202;51.468;7.146;2023-03-01T13:47:45;25.10;39.00
53314;DHT22;39202;51.468;7.146;2023-03-01T13:52:52;25.10;39.00
53314;DHT22;39202;51.468;7.146;2023-03-01T13:57:59;25.10;38.90
53314;DHT22;39202;51.468;7.146;2023-03-01T14:03:04;25.20;38.90
53314;DHT22;39202;51.468;7.146;2023-03-01T14:08:19;25.20;38.80
53314;DHT22;39202;51.468;7.146;2023-03-01T14:13:36;25.20;38.80
53314;DHT22;39202;51.468;7.146;2023-03-01T14:18:47;25.20;38.80
53314;DHT22;39202;51.468;7.146;2023-03-01T14:23:53;25.20;38.80
53314;DHT22;39202;51.468;7.146;2023-03-01T14:28:56;25.20;38.80
53314;DHT22;39202;51.468;7.146;2023-03-01T14:33:58;25.20;38.80
53314;DHT22;39202;51.468;7.146;2023-03-01T14:39:00;25.20;38.90
53314;DHT22;39202;51.468;7.146;2023-03-01T14:44:14;25.20;38.10
53314;DHT22;39202;51.468;7.146;2023-03-01T14:49:20;25.10;37.00
53314;DHT22;39202;51.468;7.146;2023-03-01T14:54:26;25.00;36.70
53314;DHT22;39202;51.468;7.146;2023-03-01T14:59:29;24.90;36.40
53314;DHT22;39202;51.468;7.146;2023-03-01T15:04:31;24.80;35.90
53314;DHT22;39202;51.468;7.146;2023-03-01T15:09:34;24.70;35.90
53314;DHT22;39202;51.468;7.146;2023-03-01T15:14:43;24.20;34.90
53314;DHT22;39202;51.468;7.146;2023-03-01T15:19:49;24.20;36.20
53314;DHT22;39202;51.468;7.146;2023-03-01T15:24:51;24.30;36.40
53314;DHT22;39202;51.468;7.146;2023-03-01T15:29:56;24.30;36.60
53314;DHT22;39202;51.468;7.146;2023-03-01T15:35:01;24.40;36.90
53314;DHT22;39202;51.468;7.146;2023-03-01T15:40:24;24.40;37.10
53314;DHT22;39202;51.468;7.146;2023-03-01T15:45:33;24.50;37.30
53314;DHT22;39202;51.468;7.146;2023-03-01T15:50:37;24.50;37.50
53314;DHT22;39202;51.468;7.146;2023-03-01T15:55:40;24.50;37.60
53314;DHT22;39202;51.468;7.146;2023-03-01T16:00:44;24.50;37.70
53314;DHT22;39202;51.468;7.146;2023-03-01T16:05:46;24.60;37.80
53314;DHT22;39202;51.468;7.146;2023-03-01T16:10:49;24.60;37.90
53314;DHT22;39202;51.468;7.146;2023-03-01T16:15:53;24.60;37.90
53314;DHT22;39202;51.468;7.146;2023-03-01T16:20:55;24.70;37.90
53314;DHT22;39202;51.468;7.146;2023-03-01T16:25:59;24.60;37.90
53314;DHT22;39202;51.468;7.146;2023-03-01T16:31:02;24.60;37.90
53314;DHT22;39202;51.468;7.146;2023-03-01T16:36:10;24.60;38.00
53314;DHT22;39202;51.468;7.146;2023-03-01T16:41:15;24.60;38.00
53314;DHT22;39202;51.468;7.146;2023-03-01T16:46:19;24.60;38.00
53314;DHT22;39202;51.468;7.146;2023-03-01T16:51:22;24.60;38.10
53314;DHT22;39202;51.468;7.146;2023-03-01T16:56:24;24.60;38.10
53314;DHT22;39202;51.468;7.146;2023-03-01T17:01:27;24.60;38.20
53314;DHT22;39202;51.468;7.146;2023-03-01T17:06:33;24.60;38.20
53314;DHT22;39202;51.468;7.146;2023-03-01T17:11:35;24.50;38.30
53314;DHT22;39202;51.468;7.146;2023-03-01T17:16:38;24.50;38.30
53314;DHT22;39202;51.468;7.146;2023-03-01T17:21:40;24.50;38.40
53314;DHT22;39202;51.468;7.146;2023-03-01T17:26:43;24.50;38.40
53314;DHT22;39202;51.468;7.146;2023-03-01T17:31:46;24.50;38.20
53314;DHT22;39202;51.468;7.146;2023-03-01T17:36:48;24.50;38.00
53314;DHT22;39202;51.468;7.146;2023-03-01T17:41:51;24.40;38.00
53314;DHT22;39202;51.468;7.146;2023-03-01T17:46:54;24.40;38.10
53314;DHT22;39202;51.468;7.146;2023-03-01T17:51:56;24.30;38.10
53314;DHT22;39202;51.468;7.146;2023-03-01T17:56:58;24.30;38.10
53314;DHT22;39202;51.468;7.146;2023-03-01T18:02:01;24.20;38.10
53314;DHT22;39202;51.468;7.146;2023-03-01T18:07:03;24.20;38.20
53314;DHT22;39202;51.468;7.146;2023-03-01T18:12:04;24.10;38.10
53314;DHT22;39202;51.468;7.146;2023-03-01T18:17:08;24.10;38.20
53314;DHT22;39202;51.468;7.146;2023-03-01T18:22:11;24.00;38.30
53314;DHT22;39202;51.468;7.146;2023-03-01T18:27:13;24.00;38.30
53314;DHT22;39202;51.468;7.146;2023-03-01T18:32:16;23.90;38.30
53314;DHT22;39202;51.468;7.146;2023-03-01T18:37:18;23.90;38.30
53314;DHT22;39202;51.468;7.146;2023-03-01T18:42:20;23.80;38.30
53314;DHT22;39202;51.468;7.146;2023-03-01T18:47:23;23.80;38.40
53314;DHT22;39202;51.468;7.146;2023-03-01T18:52:25;23.80;38.40
53314;DHT22;39202;51.468;7.146;2023-03-01T18:57:27;23.70;38.50
53314;DHT22;39202;51.468;7.146;2023-03-01T19:02:30;23.70;38.50
53314;DHT22;39202;51.468;7.146;2023-03-01T19:07:32;23.70;38.50
53314;DHT22;39202;51.468;7.146;2023-03-01T19:12:34;23.70;38.50
53314;DHT22;39202;51.468;7.146;2023-03-01T19:17:37;23.60;38.50
53314;DHT22;39202;51.468;7.146;2023-03-01T19:22:39;23.50;38.50
53314;DHT22;39202;51.468;7.146;2023-03-01T19:27:40;23.50;38.50
53314;DHT22;39202;51.468;7.146;2023-03-01T19:32:43;23.50;38.60
53314;DHT22;39202;51.468;7.146;2023-03-01T19:37:45;23.50;38.60
53314;DHT22;39202;51.468;7.146;2023-03-01T19:42:47;23.40;38.60
53314;DHT22;39202;51.468;7.146;2023-03-01T19:47:50;23.40;38.60
53314;DHT22;39202;51.468;7.146;2023-03-01T19:52:52;23.40;38.60
53314;DHT22;39202;51.468;7.146;2023-03-01T19:57:53;23.30;38.60
53314;DHT22;39202;51.468;7.146;2023-03-01T20:02:56;23.30;38.70
53314;DHT22;39202;51.468;7.146;2023-03-01T20:07:58;23.30;38.70
53314;DHT22;39202;51.468;7.146;2023-03-01T20:13:00;23.30;38.70
53314;DHT22;39202;51.468;7.146;2023-03-01T20:18:03;23.20;38.70
53314;DHT22;39202;51.468;7.146;2023-03-01T20:23:05;23.20;38.70
53314;DHT22;39202;51.468;7.146;2023-03-01T20:28:07;23.20;38.70
53314;DHT22;39202;51.468;7.146;2023-03-01T20:33:10;23.10;38.70
53314;DHT22;39202;51.468;7.146;2023-03-01T20:38:12;23.10;38.70
53314;DHT22;39202;51.468;7.146;2023-03-01T20:43:13;23.10;38.80
53314;DHT22;39202;51.468;7.146;2023-03-01T20:48:16;23.10;38.80
53314;DHT22;39202;51.468;7.146;2023-03-01T20:53:18;23.10;38.90
53314;DHT22;39202;51.468;7.146;2023-03-01T20:58:20;23.00;38.80
53314;DHT22;39202;51.468;7.146;2023-03-01T21:03:23;23.00;38.80
53314;DHT22;39202;51.468;7.146;2023-03-01T21:08:25;22.90;38.80
53314;DHT22;39202;51.468;7.146;2023-03-01T21:13:28;22.90;38.90
53314;DHT22;39202;51.468;7.146;2023-03-01T21:18:31;22.90;39.00
53314;DHT22;39202;51.468;7.146;2023-03-01T21:23:36;22.90;38.90
53314;DHT22;39202;51.468;7.146;2023-03-01T21:28:39;22.90;39.00
53314;DHT22;39202;51.468;7.146;2023-03-01T21:33:46;22.80;38.90
53314;DHT22;39202;51.468;7.146;2023-03-01T21:38:49;22.80;38.90
53314;DHT22;39202;51.468;7.146;2023-03-01T21:43:52;22.80;38.90
53314;DHT22;39202;51.468;7.146;2023-03-01T21:48:57;22.80;39.00
53314;DHT22;39202;51.468;7.146;2023-03-01T21:53:59;22.80;39.00
53314;DHT22;39202;51.468;7.146;2023-03-01T21:59:01;22.70;39.00
53314;DHT22;39202;51.468;7.146;2023-03-01T22:04:04;22.70;39.00
53314;DHT22;39202;51.468;7.146;2023-03-01T22:09:08;22.70;38.90
53314;DHT22;39202;51.468;7.146;2023-03-01T22:14:11;22.70;39.00
53314;DHT22;39202;51.468;7.146;2023-03-01T22:19:15;22.70;39.00
53314;DHT22;39202;51.468;7.146;2023-03-01T22:24:18;22.60;39.00
53314;DHT22;39202;51.468;7.146;2023-03-01T22:29:22;22.60;39.10
53314;DHT22;39202;51.468;7.146;2023-03-01T22:34:26;22.60;39.00
53314;DHT22;39202;51.468;7.146;2023-03-01T22:39:28;22.50;39.00
53314;DHT22;39202;51.468;7.146;2023-03-01T22:44:29;22.50;39.10
53314;DHT22;39202;51.468;7.146;2023-03-01T22:49:33;22.50;39.10
53314;DHT22;39202;51.468;7.146;2023-03-01T22:54:34;22.50;39.10
53314;DHT22;39202;51.468;7.146;2023-03-01T22:59:36;22.50;39.10
53314;DHT22;39202;51.468;7.146;2023-03-01T23:04:39;22.50;39.10
53314;DHT22;39202;51.468;7.146;2023-03-01T23:09:43;22.50;39.20
53314;DHT22;39202;51.468;7.146;2023-03-01T23:14:45;22.40;39.20
53314;DHT22;39202;51.468;7.146;2023-03-01T23:19:48;22.40;39.10
53314;DHT22;39202;51.468;7.146;2023-03-01T23:24:50;22.40;39.20
53314;DHT22;39202;51.468;7.146;2023-03-01T23:29:52;22.40;39.20
53314;DHT22;39202;51.468;7.146;2023-03-01T23:34:55;22.40;39.20
53314;DHT22;39202;51.468;7.146;2023-03-01T23:39:57;22.30;39.20
53314;DHT22;39202;51.468;7.146;2023-03-01T23:44:58;22.30;39.20
53314;DHT22;39202;51.468;7.146;2023-03-01T23:50:02;22.30;39.20
53314;DHT22;39202;51.468;7.146;2023-03-01T23:55:06;22.30;39.20
